createdAt,value
2017-12-17T00:00:02.893Z,100653
2017-12-17T00:02:31.659Z,100655
2017-12-17T00:04:59.638Z,100649
2017-12-17T00:07:28.336Z,100655
2017-12-17T00:09:56.364Z,100652
2017-12-17T00:12:24.490Z,100655
2017-12-17T00:14:52.450Z,100665
2017-12-17T00:17:21.172Z,100662
2017-12-17T00:19:49.140Z,100669
2017-12-17T00:22:17.119Z,100678
2017-12-17T00:24:45.363Z,100689
2017-12-17T00:27:14.312Z,100689
2017-12-17T00:29:44.173Z,100693
2017-12-17T00:32:12.361Z,100690
2017-12-17T00:34:40.329Z,100679
2017-12-17T00:37:08.295Z,100689
2017-12-17T00:39:36.335Z,100681
2017-12-17T00:42:04.368Z,100688
2017-12-17T00:44:32.320Z,100679
2017-12-17T00:47:00.284Z,100683
2017-12-17T00:49:29.077Z,100676
2017-12-17T00:51:57.001Z,100691
2017-12-17T00:54:24.944Z,100680
2017-12-17T00:56:52.902Z,100678
2017-12-17T00:59:20.889Z,100685
2017-12-17T01:01:48.868Z,100686
2017-12-17T01:04:17.549Z,100683
2017-12-17T01:06:45.544Z,100707
2017-12-17T01:09:14.397Z,100686
2017-12-17T01:11:42.328Z,100698
2017-12-17T01:14:10.539Z,100701
2017-12-17T01:16:38.524Z,100700
2017-12-17T01:19:06.632Z,100707
2017-12-17T01:21:34.623Z,100703
2017-12-17T01:24:02.609Z,100704
2017-12-17T01:26:30.811Z,100697
2017-12-17T01:29:02.264Z,100712
2017-12-17T01:31:31.024Z,100709
2017-12-17T01:33:59.240Z,100717
2017-12-17T01:36:27.956Z,100712
2017-12-17T01:38:56.392Z,100714
2017-12-17T01:41:25.156Z,100711
2017-12-17T01:43:53.188Z,100717
2017-12-17T01:46:22.279Z,100709
2017-12-17T01:48:51.008Z,100722
2017-12-17T01:51:19.043Z,100730
2017-12-17T01:53:47.752Z,100730
2017-12-17T01:56:15.808Z,100719
2017-12-17T01:58:43.800Z,100729
2017-12-17T02:01:11.731Z,100735
2017-12-17T02:03:39.716Z,100734
2017-12-17T02:06:07.671Z,100742
2017-12-17T02:08:35.640Z,100743
2017-12-17T02:11:04.647Z,100738
2017-12-17T02:13:32.680Z,100746
2017-12-17T02:16:00.771Z,100750
2017-12-17T02:18:28.779Z,100748
2017-12-17T02:20:56.875Z,100740
2017-12-17T02:23:24.884Z,100750
2017-12-17T02:25:53.683Z,100744
2017-12-17T02:28:21.781Z,100758
2017-12-17T02:30:50.216Z,100764
2017-12-17T02:33:18.224Z,100772
2017-12-17T02:35:46.203Z,100781
2017-12-17T02:38:14.103Z,100787
2017-12-17T02:40:42.345Z,100781
2017-12-17T02:43:10.554Z,100780
2017-12-17T02:45:39.345Z,100784
2017-12-17T02:48:08.503Z,100797
2017-12-17T02:50:36.471Z,100803
2017-12-17T02:53:04.561Z,100797
2017-12-17T02:55:32.658Z,100796
2017-12-17T02:58:01.033Z,100808
2017-12-17T03:00:29.087Z,100803
2017-12-17T03:02:57.097Z,100812
2017-12-17T03:05:26.159Z,100809
2017-12-17T03:07:54.164Z,100811
2017-12-17T03:10:22.163Z,100821
2017-12-17T03:12:50.363Z,100814
2017-12-17T03:15:18.692Z,100817
2017-12-17T03:17:46.754Z,100829
2017-12-17T03:20:16.247Z,100831
2017-12-17T03:22:44.235Z,100843
2017-12-17T03:25:12.227Z,100833
2017-12-17T03:27:40.288Z,100838
2017-12-17T03:30:09.253Z,100839
2017-12-17T03:32:37.375Z,100849
2017-12-17T03:35:05.401Z,100846
2017-12-17T03:37:33.636Z,100846
2017-12-17T03:40:03.878Z,100850
2017-12-17T03:42:31.932Z,100854
2017-12-17T03:45:00.209Z,100852
2017-12-17T03:47:28.221Z,100852
2017-12-17T03:49:57.751Z,100845
2017-12-17T03:52:25.794Z,100854
2017-12-17T03:54:53.785Z,100869
2017-12-17T03:57:22.553Z,100862
2017-12-17T03:59:50.587Z,100870
2017-12-17T04:02:18.619Z,100872
2017-12-17T04:04:48.088Z,100876
2017-12-17T04:07:16.128Z,100878
2017-12-17T04:09:44.123Z,100885
2017-12-17T04:12:12.215Z,100881
2017-12-17T04:14:41.739Z,100880
2017-12-17T04:17:09.715Z,100898
2017-12-17T04:19:37.679Z,100889
2017-12-17T04:22:06.410Z,100903
2017-12-17T04:24:34.400Z,100911
2017-12-17T04:27:02.759Z,100909
2017-12-17T04:29:30.880Z,100914
2017-12-17T04:31:58.952Z,100912
2017-12-17T04:34:26.932Z,100913
2017-12-17T04:36:54.960Z,100918
2017-12-17T04:39:22.951Z,100919
2017-12-17T04:41:50.940Z,100926
2017-12-17T04:44:18.927Z,100926
2017-12-17T04:46:46.929Z,100939
2017-12-17T04:49:14.956Z,100933
2017-12-17T04:51:44.062Z,100942
2017-12-17T04:54:12.088Z,100951
2017-12-17T04:56:40.106Z,100955
2017-12-17T04:59:08.129Z,100949
2017-12-17T05:01:36.083Z,100951
2017-12-17T05:04:04.075Z,100953
2017-12-17T05:06:32.077Z,100966
2017-12-17T05:09:00.036Z,100962
2017-12-17T05:11:28.888Z,100965
2017-12-17T05:13:57.124Z,100965
2017-12-17T05:16:25.107Z,100966
2017-12-17T05:18:53.132Z,100973
2017-12-17T05:21:21.194Z,100976
2017-12-17T05:23:49.225Z,100985
2017-12-17T05:26:17.228Z,100983
2017-12-17T05:28:45.926Z,100998
2017-12-17T05:31:13.972Z,101007
2017-12-17T05:33:41.962Z,101017
2017-12-17T05:36:09.967Z,101007
2017-12-17T05:38:37.928Z,101013
2017-12-17T05:41:06.660Z,101022
2017-12-17T05:43:34.816Z,101016
2017-12-17T05:46:03.144Z,101037
2017-12-17T05:48:31.141Z,101041
2017-12-17T05:51:00.071Z,101041
2017-12-17T05:53:28.047Z,101044
2017-12-17T05:55:56.039Z,101049
2017-12-17T05:58:24.041Z,101045
2017-12-17T06:00:52.856Z,101048
2017-12-17T06:03:21.139Z,101053
2017-12-17T06:05:49.096Z,101054
2017-12-17T06:08:17.084Z,101063
2017-12-17T06:10:45.066Z,101064
2017-12-17T06:13:13.052Z,101071
2017-12-17T06:15:41.079Z,101075
2017-12-17T06:18:09.293Z,101079
2017-12-17T06:20:37.277Z,101087
2017-12-17T06:23:06.472Z,101084
2017-12-17T06:25:34.876Z,101080
2017-12-17T06:28:03.863Z,101085
2017-12-17T06:30:31.917Z,101093
2017-12-17T06:33:00.048Z,101105
2017-12-17T06:35:28.055Z,101108
2017-12-17T06:37:56.042Z,101116
2017-12-17T06:40:24.029Z,101119
2017-12-17T06:42:52.771Z,101126
2017-12-17T06:45:21.267Z,101136
2017-12-17T06:47:50.757Z,101136
2017-12-17T06:50:18.735Z,101134
2017-12-17T06:52:46.880Z,101141
2017-12-17T06:55:14.850Z,101155
2017-12-17T06:57:42.816Z,101153
2017-12-17T07:00:10.804Z,101158
2017-12-17T07:02:38.820Z,101159
2017-12-17T07:05:06.855Z,101158
2017-12-17T07:07:35.295Z,101158
2017-12-17T07:10:03.293Z,101152
2017-12-17T07:12:31.305Z,101165
2017-12-17T07:15:00.238Z,101170
2017-12-17T07:17:28.272Z,101168
2017-12-17T07:19:56.263Z,101168
2017-12-17T07:22:24.626Z,101163
2017-12-17T07:24:52.876Z,101166
2017-12-17T07:27:20.941Z,101169
2017-12-17T07:29:48.848Z,101179
2017-12-17T07:32:16.814Z,101181
2017-12-17T07:34:44.787Z,101183
2017-12-17T07:37:12.762Z,101192
2017-12-17T07:39:40.755Z,101190
2017-12-17T07:42:08.776Z,101207
2017-12-17T07:44:36.856Z,101202
2017-12-17T07:47:05.347Z,101204
2017-12-17T07:49:33.319Z,101208
2017-12-17T07:52:01.331Z,101218
2017-12-17T07:54:29.352Z,101222
2017-12-17T07:56:57.387Z,101222
2017-12-17T07:59:25.400Z,101232
2017-12-17T08:01:53.387Z,101232
2017-12-17T08:04:21.354Z,101240
2017-12-17T08:06:49.370Z,101241
2017-12-17T08:09:17.387Z,101243
2017-12-17T08:11:45.632Z,101242
2017-12-17T08:14:13.603Z,101253
2017-12-17T08:16:41.563Z,101241
2017-12-17T08:19:09.570Z,101254
2017-12-17T08:21:37.556Z,101248
2017-12-17T08:24:05.557Z,101254
2017-12-17T08:26:33.587Z,101262
2017-12-17T08:29:01.556Z,101260
2017-12-17T08:31:29.651Z,101274
2017-12-17T08:33:57.920Z,101272
2017-12-17T08:36:25.924Z,101274
2017-12-17T08:38:53.927Z,101292
2017-12-17T08:41:22.669Z,101288
2017-12-17T08:43:50.777Z,101305
2017-12-17T08:46:18.759Z,101303
2017-12-17T08:48:47.524Z,101301
2017-12-17T08:51:15.507Z,101299
2017-12-17T08:53:44.544Z,101307
2017-12-17T08:56:12.595Z,101319
2017-12-17T08:58:40.640Z,101313
2017-12-17T09:01:08.651Z,101318
2017-12-17T09:03:36.701Z,101324
2017-12-17T09:06:04.821Z,101320
2017-12-17T09:08:32.811Z,101332
2017-12-17T09:11:00.878Z,101329
2017-12-17T09:13:28.857Z,101330
2017-12-17T09:15:57.252Z,101306
2017-12-17T09:18:25.248Z,101335
2017-12-17T09:20:53.345Z,101334
2017-12-17T09:23:21.383Z,101336
2017-12-17T09:25:49.411Z,101365
2017-12-17T09:28:17.408Z,101364
2017-12-17T09:30:45.363Z,101368
2017-12-17T09:33:13.399Z,101358
2017-12-17T09:35:41.320Z,101370
2017-12-17T09:38:10.475Z,101378
2017-12-17T09:40:38.566Z,101385
2017-12-17T09:43:06.659Z,101388
2017-12-17T09:45:34.611Z,101393
2017-12-17T09:48:02.704Z,101404
2017-12-17T09:50:30.946Z,101405
2017-12-17T09:52:58.958Z,101401
2017-12-17T09:55:27.220Z,101406
2017-12-17T09:57:55.967Z,101402
2017-12-17T10:00:24.487Z,101411
2017-12-17T10:02:53.370Z,101407
2017-12-17T10:05:21.361Z,101401
2017-12-17T10:07:49.319Z,101419
2017-12-17T10:10:17.438Z,101410
2017-12-17T10:12:45.435Z,101413
2017-12-17T10:15:13.892Z,101409
2017-12-17T10:17:41.868Z,101413
2017-12-17T10:20:09.890Z,101409
2017-12-17T10:22:38.302Z,101408
2017-12-17T10:25:06.288Z,101405
2017-12-17T10:27:35.000Z,101420
2017-12-17T10:30:03.565Z,101421
2017-12-17T10:32:31.599Z,101416
2017-12-17T10:34:59.571Z,101409
2017-12-17T10:37:27.522Z,101418
2017-12-17T10:39:55.485Z,101425
2017-12-17T10:42:23.430Z,101419
2017-12-17T10:44:51.420Z,101426
2017-12-17T10:47:19.718Z,101414
2017-12-17T10:49:47.712Z,101425
2017-12-17T10:52:15.659Z,101423
2017-12-17T11:07:44.176Z,101416
2017-12-17T11:10:12.142Z,101427
2017-12-17T11:12:40.132Z,101417
2017-12-17T11:15:08.169Z,101415
2017-12-17T11:17:36.770Z,101421
2017-12-17T11:20:04.862Z,101417
2017-12-17T11:22:32.936Z,101415
2017-12-17T11:25:00.903Z,101412
2017-12-17T11:27:28.864Z,101405
2017-12-17T11:29:58.601Z,101411
2017-12-17T11:32:26.587Z,101424
2017-12-17T11:34:54.540Z,101420
2017-12-17T11:37:23.277Z,101418
2017-12-17T11:39:51.255Z,101422
2017-12-17T11:42:19.255Z,101416
2017-12-17T11:44:47.238Z,101415
2017-12-17T11:47:15.213Z,101423
2017-12-17T11:49:43.195Z,101422
2017-12-17T11:52:11.439Z,101430
2017-12-17T11:54:39.392Z,101397
2017-12-17T11:57:08.095Z,101425
2017-12-17T11:59:36.045Z,101422
2017-12-17T12:02:04.047Z,101424
2017-12-17T12:04:32.904Z,101429
2017-12-17T12:07:02.486Z,101422
2017-12-17T12:09:30.475Z,101432
2017-12-17T12:11:58.472Z,101434
2017-12-17T12:14:26.466Z,101396
2017-12-17T12:16:54.932Z,101427
2017-12-17T12:19:22.911Z,101440
2017-12-17T12:21:51.649Z,101428
2017-12-17T12:24:19.675Z,101435
2017-12-17T12:26:47.663Z,101440
2017-12-17T12:29:15.631Z,101438
2017-12-17T12:31:43.695Z,101436
2017-12-17T12:34:11.671Z,101431
2017-12-17T12:36:40.117Z,101445
2017-12-17T12:39:08.136Z,101445
2017-12-17T12:41:36.117Z,101446
2017-12-17T12:44:05.450Z,101440
2017-12-17T12:46:33.472Z,101444
2017-12-17T12:49:01.456Z,101440
2017-12-17T12:51:29.747Z,101447
2017-12-17T12:53:57.747Z,101442
2017-12-17T12:56:26.483Z,101448
2017-12-17T12:58:54.467Z,101451
2017-12-17T13:01:22.933Z,101461
2017-12-17T13:03:51.592Z,101463
2017-12-17T13:06:19.542Z,101447
2017-12-17T13:08:47.539Z,101461
2017-12-17T13:11:15.588Z,101468
2017-12-17T13:13:44.357Z,101462
2017-12-17T13:16:12.392Z,101461
2017-12-17T13:18:40.400Z,101475
2017-12-17T13:21:08.379Z,101471
2017-12-17T13:23:36.356Z,101461
2017-12-17T13:26:05.305Z,101466
2017-12-17T13:28:33.320Z,101452
2017-12-17T13:31:01.359Z,101458
2017-12-17T13:33:30.088Z,101456
2017-12-17T13:35:58.349Z,101453
2017-12-17T13:38:27.043Z,101463
2017-12-17T13:40:55.023Z,101469
2017-12-17T13:43:23.812Z,101477
2017-12-17T13:45:52.613Z,101472
2017-12-17T13:48:20.864Z,101471
2017-12-17T13:51:03.710Z,101468
2017-12-17T13:53:32.088Z,101473
2017-12-17T13:56:00.076Z,101472
2017-12-17T13:58:28.366Z,101467
2017-12-17T14:00:56.365Z,101471
2017-12-17T14:03:24.367Z,101459
2017-12-17T14:05:52.515Z,101478
2017-12-17T14:08:20.530Z,101491
2017-12-17T14:10:48.531Z,101489
2017-12-17T14:13:16.516Z,101487
2017-12-17T14:15:44.511Z,101485
2017-12-17T14:18:12.524Z,101489
2017-12-17T14:20:40.813Z,101497
2017-12-17T14:23:08.858Z,101496
2017-12-17T14:25:36.847Z,101499
2017-12-17T14:28:20.036Z,101503
2017-12-17T14:30:48.768Z,101509
2017-12-17T14:33:16.871Z,101497
2017-12-17T14:35:44.907Z,101506
2017-12-17T14:38:15.191Z,101495
2017-12-17T14:40:43.174Z,101499
2017-12-17T14:43:11.256Z,101501
2017-12-17T14:45:39.323Z,101495
2017-12-17T14:48:07.609Z,101507
2017-12-17T14:50:36.221Z,101500
2017-12-17T14:53:04.248Z,101513
2017-12-17T14:55:32.267Z,101513
2017-12-17T14:58:00.368Z,101506
2017-12-17T15:00:29.159Z,101516
2017-12-17T15:02:57.927Z,101517
2017-12-17T15:05:26.912Z,101513
2017-12-17T15:08:01.901Z,101515
2017-12-17T15:10:30.224Z,101525
2017-12-17T15:12:58.275Z,101523
2017-12-17T15:15:26.317Z,101494
2017-12-17T15:17:54.332Z,101517
2017-12-17T15:20:22.347Z,101515
2017-12-17T15:22:50.388Z,101520
2017-12-17T15:25:18.456Z,101518
2017-12-17T15:27:46.515Z,101521
2017-12-17T15:30:14.811Z,101514
2017-12-17T15:32:42.821Z,101523
2017-12-17T15:35:10.837Z,101529
2017-12-17T15:37:38.803Z,101522
2017-12-17T15:40:06.767Z,101521
2017-12-17T15:42:34.747Z,101528
2017-12-17T15:45:02.839Z,101526
2017-12-17T15:47:31.630Z,101527
2017-12-17T15:50:00.387Z,101526
2017-12-17T15:52:28.395Z,101515
2017-12-17T15:54:57.223Z,101514
2017-12-17T15:57:25.272Z,101516
2017-12-17T15:59:53.347Z,101513
2017-12-17T16:02:21.340Z,101520
2017-12-17T16:04:49.303Z,101520
2017-12-17T16:07:17.896Z,101519
2017-12-17T16:09:46.597Z,101519
2017-12-17T16:12:14.912Z,101536
2017-12-17T16:14:42.999Z,101524
2017-12-17T16:17:11.403Z,101524
2017-12-17T16:19:39.421Z,101527
2017-12-17T16:22:07.588Z,101540
2017-12-17T16:24:36.301Z,101517
2017-12-17T16:27:04.299Z,101511
2017-12-17T16:29:32.299Z,101516
2017-12-17T16:32:00.264Z,101524
2017-12-17T16:34:28.243Z,101526
2017-12-17T16:36:56.580Z,101569
2017-12-17T16:39:24.523Z,101523
2017-12-17T16:41:52.496Z,101520
2017-12-17T16:44:21.248Z,101521
2017-12-17T16:46:49.180Z,101518
2017-12-17T16:49:17.270Z,101517
2017-12-17T16:51:45.206Z,101518
2017-12-17T16:54:13.908Z,101526
2017-12-17T16:56:41.858Z,101527
2017-12-17T16:59:09.820Z,101521
2017-12-17T17:01:38.961Z,101515
2017-12-17T17:04:06.942Z,101515
2017-12-17T17:06:35.469Z,101516
2017-12-17T17:09:04.923Z,101511
2017-12-17T17:11:32.869Z,101516
2017-12-17T17:14:03.245Z,101503
2017-12-17T17:16:31.196Z,101499
2017-12-17T17:19:00.245Z,101509
2017-12-17T17:21:28.462Z,101504
2017-12-17T17:23:56.666Z,101499
2017-12-17T17:26:26.282Z,101501
2017-12-17T17:28:57.049Z,101481
2017-12-17T17:31:25.012Z,101490
2017-12-17T17:33:53.716Z,101481
2017-12-17T17:36:22.783Z,101470
2017-12-17T17:38:50.711Z,101468
2017-12-17T17:41:18.696Z,101477
2017-12-17T17:43:48.155Z,101484
2017-12-17T17:46:16.418Z,101478
2017-12-17T17:48:45.093Z,101478
2017-12-17T17:51:17.106Z,101483
2017-12-17T17:53:45.103Z,101474
2017-12-17T17:56:13.872Z,101473
2017-12-17T17:58:41.842Z,101474
2017-12-17T18:01:10.362Z,101472
2017-12-17T18:03:38.840Z,101470
2017-12-17T18:06:06.778Z,101473
2017-12-17T18:08:34.748Z,101482
2017-12-17T18:11:03.205Z,101477
2017-12-17T18:13:31.364Z,101461
2017-12-17T18:15:59.376Z,101452
2017-12-17T18:18:27.644Z,101471
2017-12-17T18:20:57.139Z,101458
2017-12-17T18:23:25.259Z,101455
2017-12-17T18:25:53.912Z,101457
2017-12-17T18:28:21.899Z,101447
2017-12-17T18:30:50.228Z,101455
2017-12-17T18:33:18.212Z,101460
2017-12-17T18:35:46.478Z,101460
2017-12-17T18:38:14.415Z,101465
2017-12-17T18:40:42.337Z,101474
2017-12-17T18:43:10.299Z,101474
2017-12-17T18:45:38.227Z,101463
2017-12-17T18:48:08.375Z,101462
2017-12-17T18:50:36.330Z,101468
2017-12-17T18:53:04.295Z,101467
2017-12-17T18:55:32.195Z,101463
2017-12-17T18:58:00.263Z,101467
2017-12-17T19:00:30.955Z,101475
2017-12-17T19:02:59.495Z,101455
2017-12-17T19:05:27.521Z,101461
2017-12-17T19:07:55.559Z,101461
2017-12-17T19:10:23.507Z,101465
2017-12-17T19:12:51.617Z,101481
2017-12-17T19:15:21.023Z,101457
2017-12-17T19:17:49.936Z,101455
2017-12-17T19:20:18.194Z,101449
2017-12-17T19:22:46.903Z,101446
2017-12-17T19:25:14.899Z,101456
2017-12-17T19:27:42.827Z,101455
2017-12-17T19:30:10.819Z,101443
2017-12-17T19:32:38.978Z,101457
2017-12-17T19:35:06.970Z,101450
2017-12-17T19:37:34.937Z,101454
2017-12-17T19:40:04.157Z,101463
2017-12-17T19:42:32.271Z,101474
2017-12-17T19:45:00.240Z,101467
2017-12-17T19:47:28.943Z,101463
2017-12-17T19:49:56.883Z,101455
2017-12-17T19:52:24.823Z,101460
2017-12-17T19:54:52.824Z,101469
2017-12-17T19:57:21.195Z,101469
2017-12-17T19:59:49.128Z,101447
2017-12-17T20:02:17.056Z,101473
2017-12-17T20:04:46.456Z,101471
2017-12-17T20:07:15.142Z,101466
2017-12-17T20:09:43.840Z,101474
2017-12-17T20:12:11.796Z,101477
2017-12-17T20:14:39.784Z,101477
2017-12-17T20:17:07.743Z,101475
2017-12-17T20:19:35.831Z,101482
2017-12-17T20:22:03.816Z,101488
2017-12-17T20:24:31.792Z,101477
2017-12-17T20:26:59.799Z,101485
2017-12-17T20:29:28.144Z,101482
2017-12-17T20:31:56.114Z,101490
2017-12-17T20:34:24.091Z,101486
2017-12-17T20:36:52.111Z,101491
2017-12-17T20:39:20.029Z,101475
2017-12-17T20:41:47.959Z,101481
2017-12-17T20:44:15.892Z,101486
2017-12-17T20:46:43.823Z,101455
2017-12-17T20:49:12.188Z,101483
2017-12-17T20:51:40.433Z,101472
2017-12-17T20:54:09.251Z,101486
2017-12-17T20:56:37.196Z,101489
2017-12-17T20:59:05.941Z,101485
2017-12-17T21:01:33.871Z,101473
2017-12-17T21:04:01.823Z,101485
2017-12-17T21:06:30.276Z,101478
2017-12-17T21:08:59.947Z,101477
2017-12-17T21:11:27.920Z,101477
2017-12-17T21:13:56.089Z,101470
2017-12-17T21:16:24.026Z,101473
2017-12-17T21:18:51.960Z,101476
2017-12-17T21:21:21.463Z,101486
2017-12-17T21:23:49.413Z,101469
2017-12-17T21:26:17.802Z,101468
2017-12-17T21:28:45.723Z,101417
2017-12-17T21:31:13.837Z,101474
2017-12-17T21:33:42.143Z,101460
2017-12-17T21:36:10.157Z,101426
2017-12-17T21:38:38.213Z,101461
2017-12-17T21:41:06.149Z,101457
2017-12-17T21:43:34.115Z,101459
2017-12-17T21:46:03.721Z,101455
2017-12-17T21:48:31.647Z,101454
2017-12-17T21:50:59.631Z,101455
2017-12-17T21:53:27.536Z,101449
2017-12-17T21:57:00.112Z,101449
2017-12-17T21:59:28.436Z,101444
2017-12-17T22:01:57.124Z,101444
2017-12-17T22:04:25.091Z,101443
2017-12-17T22:06:53.054Z,101441
2017-12-17T22:09:21.412Z,101447
2017-12-17T22:11:49.351Z,101455
2017-12-17T22:14:17.278Z,101446
2017-12-17T22:16:45.564Z,101449
2017-12-17T22:19:13.494Z,101449
2017-12-17T22:21:41.456Z,101447
2017-12-17T22:24:10.119Z,101443
2017-12-17T22:26:38.036Z,101441
2017-12-17T22:29:06.012Z,101439
2017-12-17T22:31:34.327Z,101434
2017-12-17T22:34:02.255Z,101427
2017-12-17T22:36:30.354Z,101428
2017-12-17T22:38:58.272Z,101409
2017-12-17T22:41:29.601Z,101401
2017-12-17T22:43:58.315Z,101399
2017-12-17T22:46:27.238Z,101402
2017-12-17T22:48:55.347Z,101410
2017-12-17T22:51:23.571Z,101407
2017-12-17T22:53:51.522Z,101418
2017-12-17T22:56:19.479Z,101418
2017-12-17T22:58:47.484Z,101415
2017-12-17T23:01:15.432Z,101408
2017-12-17T23:03:44.216Z,101408
2017-12-17T23:06:12.126Z,101403
2017-12-17T23:08:40.253Z,101415
2017-12-17T23:11:08.194Z,101405
2017-12-17T23:13:36.899Z,101406
2017-12-17T23:16:05.379Z,101402
2017-12-17T23:18:33.328Z,101402
2017-12-17T23:21:01.240Z,101411
2017-12-17T23:23:29.895Z,101400
2017-12-17T23:25:57.879Z,101388
2017-12-17T23:28:26.007Z,101391
2017-12-17T23:30:54.048Z,101393
2017-12-17T23:33:22.451Z,101388
2017-12-17T23:35:50.378Z,101387
2017-12-17T23:38:18.316Z,101379
2017-12-17T23:40:47.043Z,101375
2017-12-17T23:43:16.125Z,101364
2017-12-17T23:45:44.828Z,101368
2017-12-17T23:48:13.503Z,101367
2017-12-17T23:50:42.211Z,101363
2017-12-17T23:53:10.504Z,101369
2017-12-17T23:55:38.484Z,101373
2017-12-17T23:58:06.452Z,101370
